createdAt,value
2022-11-05T00:01:08.582Z,45.10
2022-11-05T00:03:53.876Z,53.30
2022-11-05T00:06:39.552Z,44.97
2022-11-05T00:09:28.134Z,49.10
2022-11-05T00:12:13.313Z,46.40
2022-11-05T00:14:58.525Z,42.35
2022-11-05T00:17:25.514Z,47.50
2022-11-05T00:19:52.198Z,43.75
2022-11-05T00:22:37.701Z,48.90
2022-11-05T00:25:17.378Z,44.58
2022-11-05T00:27:49.166Z,43.92
2022-11-05T00:30:18.648Z,50.10
2022-11-05T00:32:47.670Z,48.60
2022-11-05T00:35:15.259Z,51.92
2022-11-05T00:37:48.733Z,48.90
2022-11-05T00:40:16.563Z,48.22
2022-11-05T00:43:22.015Z,46.33
2022-11-05T00:45:48.710Z,39.60
2022-11-05T00:48:34.259Z,54.40
2022-11-05T00:51:01.137Z,50.42
2022-11-05T00:53:27.990Z,47.47
2022-11-05T00:55:54.825Z,45.00
2022-11-05T00:58:22.739Z,49.20
2022-11-05T01:00:54.563Z,47.13
2022-11-05T01:03:23.585Z,45.75
2022-11-05T01:05:53.312Z,44.40
2022-11-05T01:08:22.077Z,45.85
2022-11-05T01:10:51.853Z,50.72
2022-11-05T01:13:21.751Z,46.50
2022-11-05T01:15:50.936Z,43.92
2022-11-05T01:18:19.363Z,48.22
2022-11-05T01:20:46.417Z,44.38
2022-11-05T01:23:13.971Z,45.22
2022-11-05T01:25:42.075Z,44.95
2022-11-05T01:28:09.750Z,43.60
2022-11-05T01:30:37.598Z,60.60
2022-11-05T01:33:04.400Z,45.38
2022-11-05T01:35:31.048Z,54.83
2022-11-05T01:37:58.046Z,52.70
2022-11-05T01:40:25.884Z,46.83
2022-11-05T01:42:52.884Z,47.65
2022-11-05T01:45:27.931Z,47.83
2022-11-05T01:48:03.032Z,49.38
2022-11-05T01:50:39.066Z,58.75
2022-11-05T01:53:15.191Z,44.83
2022-11-05T01:55:51.421Z,49.17
2022-11-05T01:58:22.929Z,47.92
2022-11-05T02:00:49.709Z,49.65
2022-11-05T02:03:18.075Z,52.85
2022-11-05T02:05:45.761Z,46.65
2022-11-05T02:08:22.532Z,56.90
2022-11-05T02:10:49.886Z,47.92
2022-11-05T02:13:16.702Z,52.72
2022-11-05T02:16:13.833Z,51.67
2022-11-05T02:19:05.148Z,57.17
2022-11-05T02:21:56.072Z,48.17
2022-11-05T02:24:53.309Z,56.63
2022-11-05T02:27:48.301Z,55.17
2022-11-05T02:30:33.752Z,51.70
2022-11-05T02:33:34.474Z,46.10
2022-11-05T02:36:13.509Z,46.20
2022-11-05T02:38:59.556Z,45.63
2022-11-05T02:41:52.673Z,43.28
2022-11-05T02:44:31.268Z,53.95
2022-11-05T02:47:04.254Z,56.50
2022-11-05T02:50:14.628Z,50.42
2022-11-05T02:52:58.905Z,55.80
2022-11-05T02:55:32.689Z,60.50
2022-11-05T02:58:02.190Z,51.13
2022-11-05T03:00:48.376Z,48.95
2022-11-05T03:03:28.905Z,54.42
2022-11-05T03:06:16.622Z,55.00
2022-11-05T03:08:55.570Z,60.90
2022-11-05T03:11:25.592Z,55.85
2022-11-05T03:14:21.548Z,52.03
2022-11-05T03:17:12.893Z,58.05
2022-11-05T03:19:53.782Z,52.28
2022-11-05T03:22:37.077Z,48.83
2022-11-05T03:25:11.833Z,54.33
2022-11-05T03:27:43.262Z,48.97
2022-11-05T03:30:13.176Z,59.33
2022-11-05T03:32:46.407Z,58.17
2022-11-05T03:35:26.005Z,57.95
2022-11-05T03:37:58.473Z,52.60
2022-11-05T03:40:26.323Z,58.55
2022-11-05T03:42:57.163Z,57.15
2022-11-05T03:45:36.303Z,58.67
2022-11-05T03:48:05.597Z,55.72
2022-11-05T03:51:13.975Z,52.40
2022-11-05T03:53:50.140Z,58.35
2022-11-05T03:56:31.742Z,50.97
2022-11-05T03:59:00.833Z,54.67
2022-11-05T04:01:29.121Z,58.42
2022-11-05T04:03:56.100Z,51.00
2022-11-05T04:06:41.804Z,56.55
2022-11-05T04:09:28.713Z,55.85
2022-11-05T04:12:14.018Z,56.03
2022-11-05T04:14:40.748Z,65.82
2022-11-05T04:17:07.487Z,50.85
2022-11-05T04:19:57.242Z,58.88
2022-11-05T04:22:44.042Z,56.15
2022-11-05T04:25:11.502Z,52.00
2022-11-05T04:27:39.494Z,62.55
2022-11-05T04:30:18.957Z,60.80
2022-11-05T04:33:13.038Z,57.42
2022-11-05T04:35:47.713Z,58.15
2022-11-05T04:38:17.733Z,57.78
2022-11-05T04:40:45.232Z,52.08
2022-11-05T04:43:18.923Z,57.92
2022-11-05T04:45:46.172Z,60.78
2022-11-05T04:48:13.079Z,60.10
2022-11-05T04:50:39.936Z,59.17
2022-11-05T04:53:06.807Z,66.22
2022-11-05T04:55:33.577Z,55.40
2022-11-05T04:58:00.159Z,55.65
2022-11-05T05:00:27.019Z,52.20
2022-11-05T05:02:53.781Z,53.30
2022-11-05T05:05:22.648Z,65.45
2022-11-05T05:07:49.259Z,58.45
2022-11-05T05:10:16.003Z,61.20
2022-11-05T05:12:42.688Z,53.65
2022-11-05T05:15:09.443Z,58.92
2022-11-05T05:17:36.140Z,56.80
2022-11-05T05:20:21.271Z,52.03
2022-11-05T05:22:55.343Z,56.00
2022-11-05T05:25:23.938Z,56.78
2022-11-05T05:27:50.853Z,56.42
2022-11-05T05:30:17.976Z,57.30
2022-11-05T05:32:45.560Z,57.90
2022-11-05T05:35:12.295Z,61.00
2022-11-05T05:37:39.550Z,62.15
2022-11-05T05:40:06.898Z,48.78
2022-11-05T05:42:37.464Z,49.08
2022-11-05T05:45:07.299Z,52.70
2022-11-05T05:47:34.195Z,50.67
2022-11-05T05:50:00.854Z,55.13
2022-11-05T05:52:27.571Z,55.72
2022-11-05T05:54:54.175Z,51.97
2022-11-05T05:57:21.039Z,57.65
2022-11-05T05:59:47.797Z,45.35
2022-11-05T06:02:14.622Z,49.17
2022-11-05T06:04:41.695Z,64.55
2022-11-05T06:07:08.485Z,57.58
2022-11-05T06:09:35.373Z,37.78
2022-11-05T06:12:02.220Z,38.10
2022-11-05T06:14:28.748Z,60.53
2022-11-05T06:16:55.564Z,54.20
2022-11-05T06:19:22.289Z,54.10
2022-11-05T06:21:49.199Z,57.72
2022-11-05T06:24:16.469Z,63.78
2022-11-05T06:26:43.538Z,56.67
2022-11-05T06:29:12.684Z,57.80
2022-11-05T06:31:39.764Z,61.90
2022-11-05T06:34:06.566Z,59.65
2022-11-05T06:36:33.675Z,52.55
2022-11-05T06:39:00.355Z,59.58
2022-11-05T06:41:27.220Z,57.22
2022-11-05T06:43:53.834Z,48.92
2022-11-05T06:46:20.676Z,55.22
2022-11-05T06:48:47.519Z,56.35
2022-11-05T06:51:14.588Z,47.03
2022-11-05T06:53:41.135Z,53.90
2022-11-05T06:56:08.199Z,50.35
2022-11-05T06:58:34.939Z,58.40
2022-11-05T07:01:11.469Z,47.13
2022-11-05T07:09:28.711Z,46.00
2022-11-05T07:11:55.759Z,48.33
2022-11-05T07:14:22.632Z,49.80
2022-11-05T07:16:49.747Z,52.50
2022-11-05T07:19:16.556Z,48.13
2022-11-05T07:21:43.129Z,46.58
2022-11-05T07:24:17.128Z,59.25
2022-11-05T07:26:43.877Z,52.97
2022-11-05T07:29:10.598Z,51.97
2022-11-05T07:31:37.405Z,48.53
2022-11-05T07:34:24.423Z,48.78
2022-11-05T07:36:51.253Z,46.42
2022-11-05T07:39:18.108Z,46.63
2022-11-05T07:41:44.778Z,44.53
2022-11-05T07:44:11.907Z,47.83
2022-11-05T07:46:38.679Z,55.10
2022-11-05T07:49:05.784Z,46.03
2022-11-05T07:51:32.550Z,52.03
2022-11-05T07:53:59.301Z,49.88
2022-11-05T07:56:27.119Z,53.25
2022-11-05T07:58:54.130Z,41.55
2022-11-05T08:01:21.112Z,45.67
2022-11-05T08:03:47.943Z,38.20
2022-11-05T08:06:15.246Z,37.65
2022-11-05T08:08:42.424Z,38.70
2022-11-05T08:11:11.652Z,44.58
2022-11-05T08:13:41.111Z,43.65
2022-11-05T08:16:08.152Z,47.92
2022-11-05T08:18:35.203Z,37.53
2022-11-05T08:21:04.404Z,38.15
2022-11-05T08:23:32.485Z,42.25
2022-11-05T08:25:59.479Z,45.08
2022-11-05T08:28:26.622Z,39.20
2022-11-05T08:30:55.844Z,43.22
2022-11-05T08:33:24.840Z,42.47
2022-11-05T08:35:51.902Z,32.90
2022-11-05T08:38:20.204Z,46.60
2022-11-05T08:40:57.766Z,40.00
2022-11-05T08:43:24.704Z,33.15
2022-11-05T08:45:51.491Z,36.13
2022-11-05T08:48:19.480Z,48.50
2022-11-05T08:50:48.386Z,42.42
2022-11-05T08:53:16.285Z,29.75
2022-11-05T08:55:44.173Z,33.10
2022-11-05T08:58:15.284Z,34.40
2022-11-05T09:00:43.342Z,37.77
2022-11-05T09:03:10.937Z,31.25
2022-11-05T09:05:40.031Z,30.15
2022-11-05T09:08:18.462Z,28.63
2022-11-05T09:10:46.690Z,33.88
2022-11-05T09:13:18.778Z,29.90
2022-11-05T09:15:48.392Z,33.05
2022-11-05T09:18:16.239Z,39.20
2022-11-05T09:20:43.638Z,36.95
2022-11-05T09:23:15.015Z,33.92
2022-11-05T09:25:42.343Z,42.50
2022-11-05T09:28:23.988Z,31.02
2022-11-05T09:30:53.029Z,31.13
2022-11-05T09:36:16.632Z,33.38
2022-11-05T09:38:43.739Z,37.33
2022-11-05T09:41:23.889Z,36.00
2022-11-05T09:44:01.694Z,29.75
2022-11-05T09:46:48.672Z,36.78
2022-11-05T09:49:48.181Z,25.35
2022-11-05T09:52:28.161Z,28.05
2022-11-05T09:54:56.319Z,25.23
2022-11-05T09:57:35.521Z,33.67
2022-11-05T10:00:06.922Z,31.63
2022-11-05T10:02:50.588Z,27.67
2022-11-05T10:05:19.175Z,29.75
2022-11-05T10:07:53.579Z,30.48
2022-11-05T10:10:43.806Z,28.55
2022-11-05T10:13:20.598Z,29.80
2022-11-05T10:15:59.110Z,27.58
2022-11-05T10:18:35.884Z,27.63
2022-11-05T10:21:03.425Z,31.17
2022-11-05T10:23:30.698Z,29.05
2022-11-05T10:26:03.477Z,34.88
2022-11-05T10:28:33.693Z,42.25
2022-11-05T10:36:57.165Z,28.88
2022-11-05T10:39:27.898Z,29.15
2022-11-05T10:42:42.540Z,28.95
2022-11-05T10:45:18.244Z,26.10
2022-11-05T10:47:44.927Z,29.77
2022-11-05T10:50:15.904Z,22.95
2022-11-05T10:53:06.985Z,24.05
2022-11-05T10:55:38.076Z,21.05
2022-11-05T10:58:32.812Z,27.80
2022-11-05T11:00:59.974Z,34.08
2022-11-05T11:03:37.942Z,29.20
2022-11-05T11:06:12.947Z,28.65
2022-11-05T11:08:43.676Z,38.67
2022-11-05T11:11:13.161Z,26.08
2022-11-05T11:14:06.981Z,25.50
2022-11-05T11:16:39.858Z,22.02
2022-11-05T11:19:25.783Z,34.88
2022-11-05T11:22:04.412Z,30.23
2022-11-05T11:24:38.063Z,26.42
2022-11-05T11:27:10.358Z,25.10
2022-11-05T11:29:44.011Z,18.55
2022-11-05T11:32:17.710Z,24.00
2022-11-05T11:34:47.036Z,25.23
2022-11-05T11:37:19.779Z,21.27
2022-11-05T11:39:55.149Z,24.25
2022-11-05T11:42:26.398Z,20.85
2022-11-05T11:44:53.575Z,22.23
2022-11-05T11:47:22.227Z,19.95
2022-11-05T11:49:54.701Z,25.17
2022-11-05T11:52:31.235Z,20.23
2022-11-05T11:55:28.198Z,27.98
2022-11-05T11:58:06.347Z,18.42
2022-11-05T12:00:41.364Z,22.52
2022-11-05T12:03:41.885Z,28.35
2022-11-05T12:06:22.414Z,25.40
2022-11-05T12:09:32.811Z,23.75
2022-11-05T12:12:07.784Z,21.92
2022-11-05T12:14:46.063Z,25.63
2022-11-05T12:17:43.595Z,25.08
2022-11-05T12:20:56.944Z,25.52
2022-11-05T12:23:49.531Z,24.27
2022-11-05T12:26:34.156Z,32.13
2022-11-05T12:29:42.683Z,32.72
2022-11-05T12:32:28.200Z,35.38
2022-11-05T12:35:01.921Z,27.17
2022-11-05T12:37:53.317Z,26.73
2022-11-05T12:40:54.280Z,17.23
2022-11-05T12:43:36.470Z,20.35
2022-11-05T12:48:47.569Z,19.50
2022-11-05T12:51:28.476Z,28.20
2022-11-05T12:54:23.430Z,22.55
2022-11-05T12:56:58.111Z,23.52
2022-11-05T12:59:28.790Z,22.88
2022-11-05T13:02:12.739Z,24.08
2022-11-05T13:05:01.497Z,25.23
2022-11-05T13:07:33.817Z,21.83
2022-11-05T13:10:13.806Z,19.05
2022-11-05T13:12:42.648Z,25.45
2022-11-05T13:15:29.681Z,24.92
2022-11-05T13:18:05.238Z,23.45
2022-11-05T13:20:37.858Z,20.10
2022-11-05T13:23:26.261Z,25.00
2022-11-05T13:25:58.299Z,24.08
2022-11-05T13:31:33.363Z,29.27
2022-11-05T13:34:05.262Z,33.28
2022-11-05T13:37:06.472Z,29.08
2022-11-05T13:39:55.475Z,33.15
2022-11-05T13:43:03.780Z,27.63
2022-11-05T13:46:00.121Z,32.30
2022-11-05T13:49:09.337Z,25.20
2022-11-05T13:51:59.471Z,27.90
2022-11-05T13:54:45.952Z,42.75
2022-11-05T13:57:31.378Z,35.65
2022-11-05T14:00:11.756Z,44.45
2022-11-05T14:02:47.117Z,43.08
2022-11-05T14:05:38.898Z,35.75
2022-11-05T14:08:20.575Z,37.97
2022-11-05T14:11:00.169Z,37.33
2022-11-05T14:13:38.029Z,49.38
2022-11-05T14:16:09.291Z,32.63
2022-11-05T14:18:38.336Z,49.27
2022-11-05T14:21:07.196Z,33.10
2022-11-05T14:23:40.634Z,32.20
2022-11-05T14:26:28.739Z,34.08
2022-11-05T14:29:04.707Z,30.88
2022-11-05T14:34:44.068Z,37.10
2022-11-05T14:37:13.969Z,34.60
2022-11-05T14:39:44.879Z,35.50
2022-11-05T14:42:25.269Z,37.30
2022-11-05T14:45:24.551Z,35.13
2022-11-05T14:47:58.059Z,43.15
2022-11-05T14:50:36.636Z,43.28
2022-11-05T14:53:11.463Z,49.63
2022-11-05T14:55:44.331Z,34.60
2022-11-05T14:58:25.978Z,34.97
2022-11-05T15:00:54.172Z,43.67
2022-11-05T15:03:32.383Z,35.13
2022-11-05T15:06:08.586Z,43.17
2022-11-05T15:09:05.924Z,34.47
2022-11-05T15:11:46.697Z,36.05
2022-11-05T15:14:20.762Z,38.88
2022-11-05T15:16:54.893Z,64.93
2022-11-05T15:19:27.540Z,46.30
2022-11-05T15:21:58.527Z,62.28
2022-11-05T15:24:28.451Z,53.75
2022-11-05T15:27:13.844Z,46.97
2022-11-05T15:29:41.170Z,49.67
2022-11-05T15:32:17.920Z,51.28
2022-11-05T15:34:57.437Z,42.15
2022-11-05T15:37:27.089Z,45.67
2022-11-05T15:39:55.785Z,67.40
2022-11-05T15:42:25.646Z,74.45
2022-11-05T15:44:54.959Z,82.15
2022-11-05T15:47:29.028Z,60.30
2022-11-05T15:50:19.789Z,56.72
2022-11-05T15:52:54.090Z,51.80
2022-11-05T15:55:28.585Z,63.38
2022-11-05T15:58:07.060Z,54.47
2022-11-05T16:00:36.923Z,48.50
2022-11-05T16:03:19.168Z,48.88
2022-11-05T16:08:24.911Z,45.85
2022-11-05T16:10:57.776Z,52.22
2022-11-05T16:13:33.442Z,53.05
2022-11-05T16:16:04.527Z,46.88
2022-11-05T16:18:42.622Z,51.45
2022-11-05T16:21:17.687Z,43.00
2022-11-05T16:23:53.496Z,41.55
2022-11-05T16:29:26.044Z,47.85
2022-11-05T16:31:55.414Z,40.15
2022-11-05T16:34:31.895Z,39.00
2022-11-05T16:36:59.740Z,38.60
2022-11-05T16:39:26.889Z,37.15
2022-11-05T16:41:53.910Z,38.10
2022-11-05T16:44:21.499Z,35.78
2022-11-05T16:46:50.347Z,41.80
2022-11-05T16:49:18.060Z,44.80
2022-11-05T16:51:45.248Z,45.40
2022-11-05T16:54:12.179Z,50.90
2022-11-05T16:56:40.271Z,54.70
2022-11-05T16:59:11.317Z,63.22
2022-11-05T17:01:41.297Z,49.83
2022-11-05T17:04:11.408Z,61.10
2022-11-05T17:06:41.258Z,52.97
2022-11-05T17:09:08.548Z,56.80
2022-11-05T17:11:35.592Z,54.95
2022-11-05T17:14:04.422Z,45.67
2022-11-05T17:16:32.452Z,49.83
2022-11-05T17:19:02.106Z,49.22
2022-11-05T17:21:29.226Z,47.90
2022-11-05T17:23:57.738Z,52.63
2022-11-05T17:26:25.095Z,48.30
2022-11-05T17:28:54.148Z,45.00
2022-11-05T17:31:21.042Z,43.47
2022-11-05T17:33:50.886Z,41.88
2022-11-05T17:36:17.891Z,36.17
2022-11-05T17:38:44.833Z,41.58
2022-11-05T17:41:20.628Z,32.08
2022-11-05T17:43:48.295Z,41.17
2022-11-05T17:46:17.516Z,31.38
2022-11-05T17:48:46.289Z,36.00
2022-11-05T17:51:17.943Z,37.15
2022-11-05T17:53:45.934Z,43.22
2022-11-05T17:56:26.169Z,43.17
2022-11-05T17:58:55.814Z,43.80
2022-11-05T18:01:29.142Z,45.60
2022-11-05T18:03:56.419Z,50.08
2022-11-05T18:06:23.658Z,49.05
2022-11-05T18:08:50.699Z,55.92
2022-11-05T18:11:17.880Z,49.45
2022-11-05T18:13:44.969Z,50.10
2022-11-05T18:16:12.149Z,60.92
2022-11-05T18:18:41.851Z,55.42
2022-11-05T18:21:08.856Z,53.97
2022-11-05T18:23:36.117Z,48.88
2022-11-05T18:26:09.889Z,62.17
2022-11-05T18:28:37.925Z,52.90
2022-11-05T18:31:08.285Z,53.72
2022-11-05T18:33:35.430Z,58.88
2022-11-05T18:36:02.594Z,55.95
2022-11-05T18:38:31.250Z,53.92
2022-11-05T18:40:58.190Z,60.95
2022-11-05T18:43:25.126Z,58.90
2022-11-05T18:45:56.396Z,52.58
2022-11-05T18:48:23.266Z,51.88
2022-11-05T18:50:50.059Z,51.85
2022-11-05T18:53:16.965Z,56.00
2022-11-05T18:55:51.126Z,53.40
2022-11-05T18:58:20.781Z,55.15
2022-11-05T19:00:48.772Z,55.15
2022-11-05T19:03:15.933Z,55.40
2022-11-05T19:05:42.881Z,61.70
2022-11-05T19:08:11.940Z,48.70
2022-11-05T19:10:41.157Z,48.53
2022-11-05T19:13:18.730Z,52.92
2022-11-05T19:15:45.723Z,55.22
2022-11-05T19:18:13.552Z,51.95
2022-11-05T19:20:40.615Z,48.67
2022-11-05T19:23:09.967Z,45.00
2022-11-05T19:25:40.395Z,43.45
2022-11-05T19:28:08.362Z,50.95
2022-11-05T19:30:35.386Z,43.60
2022-11-05T19:33:02.357Z,44.97
2022-11-05T19:35:34.663Z,48.97
2022-11-05T19:38:08.067Z,47.72
2022-11-05T19:40:39.928Z,43.53
2022-11-05T19:43:07.478Z,50.55
2022-11-05T19:45:49.572Z,48.35
2022-11-05T19:48:19.781Z,49.13
2022-11-05T19:50:47.448Z,42.67
2022-11-05T19:53:14.371Z,50.40
2022-11-05T19:55:41.690Z,53.10
2022-11-05T19:58:10.404Z,45.97
2022-11-05T20:00:41.148Z,48.88
2022-11-05T20:03:11.153Z,49.22
2022-11-05T20:05:40.056Z,46.53
2022-11-05T20:08:09.525Z,44.95
2022-11-05T20:10:39.646Z,49.83
2022-11-05T20:13:06.676Z,48.90
2022-11-05T20:15:39.002Z,48.05
2022-11-05T20:18:07.984Z,57.33
2022-11-05T20:20:35.762Z,42.40
2022-11-05T20:23:02.972Z,50.80
2022-11-05T20:25:37.371Z,53.42
2022-11-05T20:28:14.007Z,54.55
2022-11-05T20:30:41.703Z,48.13
2022-11-05T20:33:09.033Z,50.55
2022-11-05T20:35:41.874Z,60.95
2022-11-05T20:38:10.047Z,43.33
2022-11-05T20:40:40.170Z,46.47
2022-11-05T20:43:07.302Z,51.72
2022-11-05T20:45:34.397Z,56.17
2022-11-05T20:48:01.349Z,54.05
2022-11-05T20:50:29.045Z,44.33
2022-11-05T20:52:56.350Z,43.88
2022-11-05T20:55:23.303Z,43.40
2022-11-05T20:57:50.259Z,43.58
2022-11-05T21:00:19.756Z,51.28
2022-11-05T21:02:46.771Z,52.85
2022-11-05T21:05:13.800Z,50.55
2022-11-05T21:07:42.550Z,60.67
2022-11-05T21:10:12.670Z,49.60
2022-11-05T21:12:40.047Z,58.25
2022-11-05T21:15:07.756Z,50.20
2022-11-05T21:17:35.589Z,49.78
2022-11-05T21:20:02.855Z,60.55
2022-11-05T21:22:34.050Z,51.08
2022-11-05T21:25:02.572Z,43.90
2022-11-05T21:27:29.517Z,48.45
2022-11-05T21:29:56.573Z,50.42
2022-11-05T21:32:23.408Z,50.17
2022-11-05T21:34:50.631Z,47.30
2022-11-05T21:37:20.558Z,47.13
2022-11-05T21:39:47.449Z,52.13
2022-11-05T21:42:14.365Z,49.28
2022-11-05T21:44:41.354Z,44.17
2022-11-05T21:47:10.180Z,48.53
2022-11-05T21:49:41.033Z,48.08
2022-11-05T21:52:26.455Z,51.22
2022-11-05T21:55:13.379Z,43.35
2022-11-05T21:58:01.993Z,48.72
2022-11-05T22:00:30.361Z,55.22
2022-11-05T22:03:00.206Z,39.10
2022-11-05T22:05:30.475Z,49.35
2022-11-05T22:07:57.845Z,46.60
2022-11-05T22:10:24.782Z,55.45
2022-11-05T22:12:54.149Z,50.15
2022-11-05T22:15:21.178Z,46.55
2022-11-05T22:17:50.708Z,49.40
2022-11-05T22:20:17.822Z,47.13
2022-11-05T22:22:45.038Z,44.47
2022-11-05T22:25:13.589Z,46.13
2022-11-05T22:27:40.410Z,45.65
2022-11-05T22:30:10.185Z,50.75
2022-11-05T22:32:39.104Z,48.38
2022-11-05T22:35:06.795Z,41.83
2022-11-05T22:37:33.587Z,43.30
2022-11-05T22:40:00.295Z,46.92
2022-11-05T22:42:27.158Z,45.20
2022-11-05T22:44:54.732Z,44.92
2022-11-05T22:47:21.887Z,44.47
2022-11-05T22:49:50.357Z,47.58
2022-11-05T22:52:17.333Z,52.45
2022-11-05T22:54:44.501Z,50.15
2022-11-05T22:57:11.331Z,50.97
2022-11-05T22:59:38.128Z,48.85
2022-11-05T23:02:09.456Z,50.03
2022-11-05T23:04:37.267Z,49.65
2022-11-05T23:07:27.311Z,46.50
2022-11-05T23:10:14.077Z,48.85
2022-11-05T23:12:43.358Z,46.33
2022-11-05T23:15:30.725Z,42.28
2022-11-05T23:18:16.163Z,42.63
2022-11-05T23:21:01.677Z,54.53
2022-11-05T23:23:47.312Z,44.58
2022-11-05T23:26:33.018Z,36.72
2022-11-05T23:28:59.910Z,44.80
2022-11-05T23:31:45.077Z,46.85
2022-11-05T23:34:11.831Z,42.65
2022-11-05T23:36:57.169Z,42.13
2022-11-05T23:39:23.995Z,43.95
2022-11-05T23:42:09.222Z,52.97
2022-11-05T23:44:54.218Z,40.63
2022-11-05T23:47:39.688Z,46.50
2022-11-05T23:50:06.643Z,46.63
2022-11-05T23:52:33.420Z,42.38
2022-11-05T23:55:00.094Z,42.83
2022-11-05T23:57:26.931Z,42.33
2022-11-05T23:59:53.552Z,41.72
